Time;durP1;ratioP1;P1;durP2;ratioP2;P2;SDS_P1;SDS_P2;PMS_P1;PMS_P2;Temp;Humidity;BMP_temperature;BMP_pressure;BME280_temperature;BME280_humidity;BME280_pressure;Samples;Min_cycle;Max_cycle;Signal;HPM_P1;HPM_P2
2022/10/31 00:01:36;;;;;;;14.57;8.30;;;;;;;;;;5128001;27;20029;-76
2022/10/31 00:04:22;;;;;;;12.40;8.15;;;;;;;;;;5147048;27;20019;-74
2022/10/31 00:07:07;;;;;;;14.73;8.40;;;;;;;;;;5131219;27;20011;-74
2022/10/31 00:09:53;;;;;;;14.45;8.13;;;;;;;;;;5150067;27;20039;-73
2022/10/31 00:12:38;;;;;;;13.13;8.32;;;;;;;;;;5147226;27;20023;-74
2022/10/31 00:15:24;;;;;;;14.68;8.45;;;;;;;;;;5141743;27;20053;-74
2022/10/31 00:18:10;;;;;;;17.25;8.55;;;;;;;;;;5144183;27;20441;-74
2022/10/31 00:21:02;;;;;;;13.32;8.48;;;;;;;;;;5146083;27;20037;-75
2022/10/31 00:23:48;;;;;;;14.23;8.43;;;;;;;;;;5141170;27;20026;-77
2022/10/31 00:26:33;;;;;;;15.52;9.30;;;;;;;;;;5142689;27;20019;-76
2022/10/31 00:29:19;;;;;;;13.45;8.63;;;;;;;;;;5146978;27;20087;-75
2022/10/31 00:32:04;;;;;;;13.70;8.48;;;;;;;;;;5143365;27;20023;-74
2022/10/31 00:34:50;;;;;;;13.00;8.18;;;;;;;;;;5137686;27;20475;-75
2022/10/31 00:37:36;;;;;;;11.75;8.13;;;;;;;;;;5136909;27;20368;-75
2022/10/31 00:40:21;;;;;;;11.23;7.78;;;;;;;;;;5137362;27;20083;-75
2022/10/31 00:43:07;;;;;;;10.80;8.02;;;;;;;;;;5121043;27;20019;-76
2022/10/31 00:45:52;;;;;;;10.70;7.63;;;;;;;;;;5136293;27;20042;-75
2022/10/31 00:48:38;;;;;;;13.18;8.05;;;;;;;;;;5137458;27;20030;-74
2022/10/31 00:51:24;;;;;;;15.20;8.35;;;;;;;;;;5123048;27;20019;-75
2022/10/31 00:54:09;;;;;;;14.90;8.60;;;;;;;;;;5130014;27;20041;-75
2022/10/31 00:56:55;;;;;;;12.98;8.15;;;;;;;;;;5137531;27;20053;-76
2022/10/31 00:59:40;;;;;;;14.82;8.23;;;;;;;;;;5139973;27;20093;-76
2022/10/31 01:02:26;;;;;;;11.07;8.35;;;;;;;;;;5140015;27;20125;-75
2022/10/31 01:05:12;;;;;;;14.85;8.73;;;;;;;;;;5137338;27;20015;-75
2022/10/31 01:07:58;;;;;;;13.93;7.78;;;;;;;;;;5139618;27;20437;-74
2022/10/31 01:10:43;;;;;;;14.52;8.23;;;;;;;;;;5123223;27;20015;-75
2022/10/31 01:13:29;;;;;;;12.35;8.68;;;;;;;;;;5135756;27;20076;-76
2022/10/31 01:16:17;;;;;;;13.60;8.00;;;;;;;;;;5136301;27;20385;-76
2022/10/31 01:19:03;;;;;;;13.80;7.85;;;;;;;;;;5121902;27;20382;-76
2022/10/31 01:21:48;;;;;;;13.15;8.00;;;;;;;;;;5137317;27;20027;-76
2022/10/31 01:24:34;;;;;;;12.20;8.52;;;;;;;;;;5121334;27;20019;-76
2022/10/31 01:27:19;;;;;;;11.85;7.63;;;;;;;;;;5121029;27;20015;-75
2022/10/31 01:30:05;;;;;;;14.13;9.50;;;;;;;;;;5135901;27;20015;-76
2022/10/31 01:32:51;;;;;;;10.90;8.15;;;;;;;;;;5135759;27;20110;-76
2022/10/31 01:35:36;;;;;;;12.80;8.00;;;;;;;;;;5136274;27;20020;-76
2022/10/31 01:38:22;;;;;;;15.35;7.95;;;;;;;;;;5135615;27;20023;-75
2022/10/31 01:41:09;;;;;;;13.32;8.20;;;;;;;;;;5136878;27;20445;-76
2022/10/31 01:43:59;;;;;;;15.30;8.55;;;;;;;;;;5136170;27;20019;-77
2022/10/31 01:46:51;;;;;;;14.23;8.43;;;;;;;;;;5136094;27;20039;-75
2022/10/31 01:49:42;;;;;;;12.10;8.02;;;;;;;;;;5120639;27;20030;-75
2022/10/31 01:52:47;;;;;;;15.00;8.95;;;;;;;;;;5135071;27;20015;-75
2022/10/31 01:55:34;;;;;;;14.05;8.15;;;;;;;;;;5121485;27;20406;-75
2022/10/31 01:58:22;;;;;;;11.75;7.95;;;;;;;;;;5135485;27;20119;-75
2022/10/31 02:01:08;;;;;;;12.40;8.38;;;;;;;;;;5135825;27;20033;-75
2022/10/31 02:03:54;;;;;;;14.23;8.88;;;;;;;;;;5136364;27;20027;-76
2022/10/31 02:06:58;;;;;;;11.82;8.88;;;;;;;;;;5135323;27;20023;-77
2022/10/31 02:09:44;;;;;;;18.20;9.25;;;;;;;;;;5136368;27;20410;-75
2022/10/31 02:12:31;;;;;;;17.92;8.98;;;;;;;;;;5136313;27;20027;-76
2022/10/31 02:15:16;;;;;;;12.60;8.95;;;;;;;;;;5121590;27;20027;-75
2022/10/31 02:18:02;;;;;;;12.40;8.65;;;;;;;;;;5135223;27;20063;-76
2022/10/31 02:20:54;;;;;;;17.00;9.70;;;;;;;;;;5135424;27;20102;-75
2022/10/31 02:23:52;;;;;;;12.95;8.95;;;;;;;;;;5135031;28;20033;-75
2022/10/31 02:26:40;;;;;;;16.08;9.65;;;;;;;;;;5134871;28;20345;-76
2022/10/31 02:29:34;;;;;;;16.33;9.88;;;;;;;;;;5135281;28;20049;-75
2022/10/31 02:32:25;;;;;;;19.40;10.80;;;;;;;;;;5121269;28;20437;-77
2022/10/31 02:35:17;;;;;;;14.63;9.98;;;;;;;;;;5134562;28;20023;-75
2022/10/31 02:38:02;;;;;;;17.83;10.98;;;;;;;;;;5134956;28;20031;-77
2022/10/31 02:40:59;;;;;;;19.00;11.68;;;;;;;;;;5134319;28;20019;-77
2022/10/31 02:43:58;;;;;;;17.45;10.82;;;;;;;;;;5134269;28;20052;-76
2022/10/31 02:46:46;;;;;;;18.48;10.07;;;;;;;;;;5133516;28;20066;-76
2022/10/31 02:49:32;;;;;;;19.55;11.30;;;;;;;;;;5134006;28;20341;-76
2022/10/31 02:52:23;;;;;;;23.80;11.55;;;;;;;;;;5135804;28;20042;-76
2022/10/31 02:55:12;;;;;;;18.75;11.60;;;;;;;;;;5119376;28;20023;-76
2022/10/31 02:58:09;;;;;;;18.55;11.13;;;;;;;;;;5134007;28;20054;-77
2022/10/31 03:01:00;;;;;;;21.98;11.85;;;;;;;;;;5133896;28;20023;-78
2022/10/31 03:04:07;;;;;;;20.20;11.25;;;;;;;;;;5120242;28;20020;-77
2022/10/31 03:07:18;;;;;;;17.15;10.50;;;;;;;;;;5136143;27;20019;-76
2022/10/31 03:10:07;;;;;;;18.20;10.80;;;;;;;;;;5137980;27;20015;-77
2022/10/31 03:12:55;;;;;;;17.60;10.75;;;;;;;;;;5137745;27;20110;-76
2022/10/31 03:15:43;;;;;;;15.27;10.50;;;;;;;;;;5137519;27;20069;-77
2022/10/31 03:18:31;;;;;;;15.70;9.88;;;;;;;;;;5137582;27;20092;-77
2022/10/31 03:21:22;;;;;;;15.50;10.50;;;;;;;;;;5138822;27;20106;-77
2022/10/31 03:24:09;;;;;;;18.40;10.65;;;;;;;;;;5123044;27;20059;-76
2022/10/31 03:26:56;;;;;;;16.38;9.88;;;;;;;;;;5137305;27;20019;-75
2022/10/31 03:29:43;;;;;;;15.57;9.65;;;;;;;;;;5139239;27;20073;-77
2022/10/31 03:32:34;;;;;;;15.68;9.52;;;;;;;;;;5139214;27;20034;-77
2022/10/31 03:35:22;;;;;;;18.88;10.07;;;;;;;;;;5138061;27;20102;-75
2022/10/31 03:38:09;;;;;;;16.40;10.40;;;;;;;;;;5137406;27;20037;-76
2022/10/31 03:40:55;;;;;;;15.05;10.20;;;;;;;;;;5137064;27;20038;-77
2022/10/31 03:43:45;;;;;;;16.92;10.13;;;;;;;;;;5137426;27;20039;-75
2022/10/31 03:46:31;;;;;;;18.77;10.07;;;;;;;;;;5122060;27;20046;-76
2022/10/31 03:49:17;;;;;;;16.70;10.20;;;;;;;;;;5136960;27;20031;-76
2022/10/31 03:52:02;;;;;;;15.88;9.95;;;;;;;;;;5137814;27;20082;-74
2022/10/31 03:55:08;;;;;;;19.23;10.52;;;;;;;;;;5137835;27;20033;-78
2022/10/31 03:57:59;;;;;;;18.77;10.93;;;;;;;;;;5134071;27;20031;-75
2022/10/31 04:00:45;;;;;;;21.42;11.20;;;;;;;;;;5137098;27;20051;-76
2022/10/31 04:03:33;;;;;;;20.92;10.90;;;;;;;;;;5137372;27;20471;-75
2022/10/31 04:06:21;;;;;;;17.50;10.90;;;;;;;;;;5137197;27;20027;-76
2022/10/31 04:09:08;;;;;;;19.17;11.55;;;;;;;;;;5136671;27;20015;-76
2022/10/31 04:11:56;;;;;;;16.70;11.68;;;;;;;;;;5136429;27;20061;-76
2022/10/31 04:14:44;;;;;;;20.30;11.95;;;;;;;;;;5122044;27;20356;-77
2022/10/31 04:17:31;;;;;;;18.92;11.27;;;;;;;;;;5121473;27;20352;-77
2022/10/31 04:20:17;;;;;;;16.48;11.25;;;;;;;;;;5137095;27;20035;-77
2022/10/31 04:23:05;;;;;;;20.33;11.02;;;;;;;;;;5136609;27;20104;-77
2022/10/31 04:25:51;;;;;;;21.33;12.40;;;;;;;;;;5121586;27;20008;-76
2022/10/31 04:28:37;;;;;;;17.63;11.55;;;;;;;;;;5137528;27;20026;-76
2022/10/31 04:31:22;;;;;;;19.42;12.07;;;;;;;;;;5136472;27;20015;-77
2022/10/31 04:34:08;;;;;;;16.52;12.30;;;;;;;;;;5137732;27;20111;-77
2022/10/31 04:36:53;;;;;;;18.42;11.90;;;;;;;;;;5121605;27;20422;-76
2022/10/31 04:39:39;;;;;;;23.00;13.40;;;;;;;;;;5136957;27;20340;-77
2022/10/31 04:42:25;;;;;;;21.00;12.80;;;;;;;;;;5136631;27;20034;-77
2022/10/31 04:45:10;;;;;;;19.10;12.98;;;;;;;;;;5136079;27;20040;-77
2022/10/31 04:47:56;;;;;;;24.30;13.45;;;;;;;;;;5137444;27;20031;-76
2022/10/31 04:50:41;;;;;;;20.95;13.45;;;;;;;;;;5121656;27;20008;-76
2022/10/31 04:53:27;;;;;;;22.23;13.10;;;;;;;;;;5122814;27;20023;-75
2022/10/31 04:56:13;;;;;;;21.48;13.05;;;;;;;;;;5136794;27;20062;-76
2022/10/31 04:58:59;;;;;;;23.35;14.48;;;;;;;;;;5122489;27;20055;-74
2022/10/31 05:01:44;;;;;;;23.48;14.48;;;;;;;;;;5136089;27;20513;-75
2022/10/31 05:04:30;;;;;;;23.27;14.52;;;;;;;;;;5137096;27;20023;-76
2022/10/31 05:07:15;;;;;;;23.35;14.63;;;;;;;;;;5137197;27;20018;-76
2022/10/31 05:10:01;;;;;;;22.77;14.05;;;;;;;;;;5137466;27;20405;-76
2022/10/31 05:12:47;;;;;;;23.05;14.25;;;;;;;;;;5137325;27;20455;-77
2022/10/31 05:15:33;;;;;;;23.33;14.52;;;;;;;;;;5135118;27;20027;-76
2022/10/31 05:18:19;;;;;;;22.23;14.80;;;;;;;;;;5120206;27;20042;-75
2022/10/31 05:21:04;;;;;;;30.70;16.38;;;;;;;;;;5135708;27;20019;-76
2022/10/31 05:23:50;;;;;;;28.00;16.23;;;;;;;;;;5138533;27;20026;-80
2022/10/31 05:26:36;;;;;;;25.20;15.27;;;;;;;;;;5154475;27;20016;-76
2022/10/31 05:29:21;;;;;;;32.55;20.52;;;;;;;;;;5136072;27;20318;-75
2022/10/31 05:32:07;;;;;;;29.38;17.95;;;;;;;;;;5121518;27;20091;-75
2022/10/31 05:34:52;;;;;;;28.30;16.95;;;;;;;;;;5136563;27;20031;-75
2022/10/31 05:37:38;;;;;;;29.38;16.80;;;;;;;;;;5135683;27;20033;-76
2022/10/31 05:40:24;;;;;;;26.67;15.70;;;;;;;;;;5136085;27;20023;-75
2022/10/31 05:43:10;;;;;;;27.20;16.63;;;;;;;;;;5137902;27;20337;-75
2022/10/31 05:45:56;;;;;;;26.85;16.42;;;;;;;;;;5122999;27;20070;-75
2022/10/31 05:48:42;;;;;;;26.15;16.20;;;;;;;;;;5145222;27;20094;-74
2022/10/31 05:51:27;;;;;;;27.85;17.20;;;;;;;;;;5121798;27;20027;-76
2022/10/31 05:54:13;;;;;;;26.58;17.30;;;;;;;;;;5135388;27;20107;-75
2022/10/31 05:56:58;;;;;;;32.45;17.80;;;;;;;;;;5134489;27;20019;-76
2022/10/31 05:59:44;;;;;;;26.98;17.50;;;;;;;;;;5121367;27;20035;-76
2022/10/31 06:02:34;;;;;;;30.65;18.15;;;;;;;;;;5135875;27;20034;-76
2022/10/31 06:05:19;;;;;;;28.98;18.13;;;;;;;;;;5135326;27;20103;-77
2022/10/31 06:08:05;;;;;;;28.67;17.55;;;;;;;;;;5134047;27;20026;-76
2022/10/31 06:10:52;;;;;;;31.75;18.17;;;;;;;;;;5134754;27;20037;-77
2022/10/31 06:13:38;;;;;;;26.60;17.70;;;;;;;;;;5135705;27;20027;-77
2022/10/31 06:16:23;;;;;;;31.17;19.25;;;;;;;;;;5134680;27;20529;-76
2022/10/31 06:19:09;;;;;;;26.40;17.67;;;;;;;;;;5135101;27;20023;-77
2022/10/31 06:21:55;;;;;;;26.17;17.25;;;;;;;;;;5133994;27;20464;-77
2022/10/31 06:24:40;;;;;;;31.90;17.20;;;;;;;;;;5121775;28;20341;-76
2022/10/31 06:27:26;;;;;;;32.63;17.27;;;;;;;;;;5135915;28;20023;-76
2022/10/31 06:30:12;;;;;;;32.17;17.38;;;;;;;;;;5120088;28;20431;-75
2022/10/31 06:33:01;;;;;;;29.77;17.15;;;;;;;;;;5134586;28;20035;-73
2022/10/31 06:35:47;;;;;;;25.35;17.15;;;;;;;;;;5119766;28;20417;-75
2022/10/31 06:38:32;;;;;;;26.67;17.13;;;;;;;;;;5135989;28;20167;-76
2022/10/31 06:41:18;;;;;;;30.63;17.20;;;;;;;;;;5137397;27;20545;-75
2022/10/31 06:44:03;;;;;;;26.55;16.30;;;;;;;;;;5138408;27;20031;-74
2022/10/31 06:46:49;;;;;;;33.58;17.63;;;;;;;;;;5138194;27;20035;-75
2022/10/31 06:49:35;;;;;;;29.92;17.75;;;;;;;;;;5139748;27;20015;-76
2022/10/31 06:52:23;;;;;;;31.38;18.40;;;;;;;;;;5138359;27;20021;-76
2022/10/31 06:55:08;;;;;;;27.67;18.00;;;;;;;;;;5138482;27;20405;-76
2022/10/31 06:57:58;;;;;;;29.40;17.55;;;;;;;;;;5137914;27;20023;-76
2022/10/31 07:00:44;;;;;;;31.83;17.73;;;;;;;;;;5138076;27;20030;-77
2022/10/31 07:03:29;;;;;;;23.60;16.08;;;;;;;;;;5138812;27;20402;-76
2022/10/31 07:06:15;;;;;;;23.73;15.93;;;;;;;;;;5138698;27;20015;-77
2022/10/31 07:09:01;;;;;;;22.75;15.93;;;;;;;;;;5139818;27;20031;-76
2022/10/31 07:11:46;;;;;;;24.33;16.23;;;;;;;;;;5137996;27;20088;-76
2022/10/31 07:14:32;;;;;;;24.92;16.73;;;;;;;;;;5140267;27;20459;-75
2022/10/31 07:17:17;;;;;;;28.52;17.05;;;;;;;;;;5138469;27;20092;-79
2022/10/31 07:20:03;;;;;;;30.35;17.55;;;;;;;;;;5124569;27;20039;-74
2022/10/31 07:22:49;;;;;;;29.40;16.60;;;;;;;;;;5137118;27;20027;-73
2022/10/31 07:25:34;;;;;;;24.40;15.63;;;;;;;;;;5124383;27;20030;-74
2022/10/31 07:28:20;;;;;;;30.00;16.60;;;;;;;;;;5138607;27;20015;-74
2022/10/31 07:31:05;;;;;;;26.88;17.45;;;;;;;;;;5138802;27;20015;-73
2022/10/31 07:33:51;;;;;;;26.00;15.43;;;;;;;;;;5124214;27;20022;-75
2022/10/31 07:36:36;;;;;;;32.38;17.40;;;;;;;;;;5138203;27;20030;-77
2022/10/31 07:39:22;;;;;;;38.20;17.33;;;;;;;;;;5138960;27;20023;-69
2022/10/31 07:42:08;;;;;;;30.40;17.75;;;;;;;;;;5138641;27;20051;-76
2022/10/31 07:44:53;;;;;;;27.17;17.10;;;;;;;;;;5137708;27;20082;-74
2022/10/31 07:47:43;;;;;;;31.35;18.33;;;;;;;;;;5123966;27;20019;-75
2022/10/31 07:50:29;;;;;;;39.25;19.85;;;;;;;;;;5137201;27;20106;-74
2022/10/31 07:53:15;;;;;;;26.88;16.88;;;;;;;;;;5136357;27;20098;-76
2022/10/31 07:56:01;;;;;;;26.13;16.83;;;;;;;;;;5138376;27;20437;-76
2022/10/31 07:58:46;;;;;;;30.45;18.42;;;;;;;;;;5123269;27;20027;-76
2022/10/31 08:01:32;;;;;;;31.50;17.52;;;;;;;;;;5141743;27;20092;-77
2022/10/31 08:04:17;;;;;;;34.92;18.30;;;;;;;;;;5127018;27;20440;-75
2022/10/31 08:07:03;;;;;;;30.65;17.20;;;;;;;;;;5138756;27;20011;-75
2022/10/31 08:09:48;;;;;;;24.08;15.95;;;;;;;;;;5140023;27;20023;-75
2022/10/31 08:12:34;;;;;;;31.17;16.73;;;;;;;;;;5138474;27;20015;-76
2022/10/31 08:15:20;;;;;;;24.88;16.17;;;;;;;;;;5137737;27;20026;-75
2022/10/31 08:18:06;;;;;;;26.50;15.80;;;;;;;;;;5136854;27;20023;-76
2022/10/31 08:20:53;;;;;;;25.13;15.32;;;;;;;;;;5137681;27;20023;-76
2022/10/31 08:23:38;;;;;;;28.05;16.77;;;;;;;;;;5136334;27;20045;-75
2022/10/31 08:26:24;;;;;;;25.55;17.65;;;;;;;;;;5122893;27;20497;-76
2022/10/31 08:29:10;;;;;;;26.00;16.98;;;;;;;;;;5137916;27;20399;-76
2022/10/31 08:31:57;;;;;;;28.88;17.58;;;;;;;;;;5123018;27;20023;-76
2022/10/31 08:34:42;;;;;;;28.20;18.38;;;;;;;;;;5136357;27;20045;-75
2022/10/31 08:37:28;;;;;;;24.75;17.33;;;;;;;;;;5137180;27;20028;-74
2022/10/31 08:40:13;;;;;;;31.35;16.73;;;;;;;;;;5137454;27;20303;-76
2022/10/31 08:43:03;;;;;;;24.33;16.80;;;;;;;;;;5136143;27;20452;-74
2022/10/31 08:45:49;;;;;;;29.27;19.02;;;;;;;;;;5135389;27;20083;-75
2022/10/31 08:48:34;;;;;;;28.00;17.50;;;;;;;;;;5135454;27;20098;-76
2022/10/31 08:51:20;;;;;;;30.13;18.40;;;;;;;;;;5136775;27;20030;-76
2022/10/31 08:54:06;;;;;;;25.35;16.73;;;;;;;;;;5122070;27;20080;-74
2022/10/31 08:56:55;;;;;;;31.33;16.48;;;;;;;;;;5135613;27;20030;-75
2022/10/31 08:59:40;;;;;;;26.95;17.20;;;;;;;;;;5135353;27;20019;-76
2022/10/31 09:02:26;;;;;;;27.02;18.08;;;;;;;;;;5136493;27;20031;-76
2022/10/31 09:05:12;;;;;;;26.35;18.15;;;;;;;;;;5135464;27;20042;-76
2022/10/31 09:07:58;;;;;;;28.08;18.65;;;;;;;;;;5135195;27;20015;-76
2022/10/31 09:10:45;;;;;;;31.90;18.02;;;;;;;;;;5135229;27;20424;-75
2022/10/31 09:13:30;;;;;;;30.55;18.25;;;;;;;;;;5136220;27;20038;-76
2022/10/31 09:16:16;;;;;;;26.38;18.65;;;;;;;;;;5135745;27;20022;-75
2022/10/31 09:19:01;;;;;;;32.97;18.13;;;;;;;;;;5135284;27;20338;-76
2022/10/31 09:21:47;;;;;;;26.00;16.23;;;;;;;;;;5135679;27;20023;-76
2022/10/31 09:24:32;;;;;;;24.38;16.70;;;;;;;;;;5136376;27;20016;-76
2022/10/31 09:27:18;;;;;;;27.80;16.13;;;;;;;;;;5121192;27;20019;-76
2022/10/31 09:30:04;;;;;;;26.17;16.45;;;;;;;;;;5135554;27;20910;-75
2022/10/31 09:33:02;;;;;;;23.23;14.23;;;;;;;;;;5135048;27;20030;-76
2022/10/31 09:35:48;;;;;;;23.55;14.85;;;;;;;;;;5134616;27;20023;-77
2022/10/31 09:38:33;;;;;;;23.33;14.43;;;;;;;;;;5135275;27;20084;-76
2022/10/31 09:41:40;;;;;;;27.45;15.30;;;;;;;;;;5134799;27;20031;-77
2022/10/31 09:44:31;;;;;;;24.92;15.27;;;;;;;;;;5135350;27;20023;-77
2022/10/31 09:47:26;;;;;;;24.65;15.18;;;;;;;;;;5134752;27;20053;-76
2022/10/31 09:50:18;;;;;;;19.48;13.45;;;;;;;;;;5135007;27;20027;-77
2022/10/31 09:53:08;;;;;;;22.13;15.00;;;;;;;;;;5135920;27;20521;-75
2022/10/31 09:55:54;;;;;;;34.03;17.02;;;;;;;;;;5135363;27;20051;-73
2022/10/31 09:58:42;;;;;;;21.20;13.75;;;;;;;;;;5120439;27;20421;-76
2022/10/31 10:01:34;;;;;;;24.05;13.05;;;;;;;;;;5135063;27;20458;-74
2022/10/31 10:04:19;;;;;;;17.27;12.13;;;;;;;;;;5134132;27;20015;-75
2022/10/31 10:07:23;;;;;;;22.23;13.48;;;;;;;;;;5134467;27;20015;-74
2022/10/31 10:10:21;;;;;;;17.70;11.82;;;;;;;;;;5134405;27;20051;-75
2022/10/31 10:13:27;;;;;;;19.95;12.57;;;;;;;;;;5134403;27;20020;-74
2022/10/31 10:16:33;;;;;;;20.00;13.32;;;;;;;;;;5135475;27;20325;-74
2022/10/31 10:19:27;;;;;;;20.20;13.45;;;;;;;;;;5134604;27;20374;-75
2022/10/31 10:22:31;;;;;;;18.33;12.32;;;;;;;;;;5134317;27;20098;-74
2022/10/31 10:25:23;;;;;;;32.33;13.10;;;;;;;;;;5120998;27;20104;-74
2022/10/31 10:28:14;;;;;;;21.17;12.50;;;;;;;;;;5119345;28;20027;-75
2022/10/31 10:31:07;;;;;;;22.60;12.68;;;;;;;;;;5134301;28;20011;-74
2022/10/31 10:34:07;;;;;;;21.95;13.00;;;;;;;;;;5135269;28;20015;-74
2022/10/31 10:37:01;;;;;;;22.55;13.00;;;;;;;;;;5119707;28;20019;-73
2022/10/31 10:39:49;;;;;;;28.45;16.05;;;;;;;;;;5119572;28;20026;-74
2022/10/31 10:48:43;;;;;;;19.58;12.77;;;;;;;;;;5135143;28;20019;-73
2022/10/31 10:51:39;;;;;;;21.85;13.35;;;;;;;;;;5120987;28;20019;-75
2022/10/31 10:54:24;;;;;;;22.02;12.27;;;;;;;;;;5119484;28;20025;-74
2022/10/31 10:57:14;;;;;;;22.70;12.95;;;;;;;;;;5137946;28;20051;-74
2022/10/31 11:00:01;;;;;;;21.80;12.98;;;;;;;;;;5137525;28;20080;-74
2022/10/31 11:02:47;;;;;;;20.10;13.38;;;;;;;;;;5134466;28;20023;-75
2022/10/31 11:05:50;;;;;;;25.33;13.60;;;;;;;;;;5134764;28;20315;-75
2022/10/31 11:08:35;;;;;;;17.02;12.10;;;;;;;;;;5134858;28;20019;-75
2022/10/31 11:11:30;;;;;;;15.43;10.60;;;;;;;;;;5136203;28;20058;-75
2022/10/31 11:14:16;;;;;;;28.17;14.05;;;;;;;;;;5134582;28;20038;-75
2022/10/31 11:17:10;;;;;;;20.13;14.07;;;;;;;;;;5129759;28;20015;-76
2022/10/31 11:20:25;;;;;;;19.17;11.38;;;;;;;;;;5135911;28;20098;-75
2022/10/31 11:23:18;;;;;;;18.25;11.35;;;;;;;;;;5105869;28;20023;-75
2022/10/31 11:26:05;;;;;;;19.70;11.20;;;;;;;;;;5134211;27;20402;-76
2022/10/31 11:28:57;;;;;;;28.15;13.40;;;;;;;;;;5141285;27;20077;-75
2022/10/31 11:31:45;;;;;;;23.92;15.15;;;;;;;;;;5122593;27;20023;-74
2022/10/31 11:34:45;;;;;;;38.20;26.85;;;;;;;;;;5138173;27;20023;-74
2022/10/31 11:37:35;;;;;;;15.80;10.15;;;;;;;;;;5138043;27;20425;-75
2022/10/31 11:40:24;;;;;;;30.65;21.63;;;;;;;;;;5137740;27;20038;-75
2022/10/31 11:43:15;;;;;;;16.42;10.07;;;;;;;;;;5138062;27;20066;-75
2022/10/31 11:46:08;;;;;;;20.63;11.43;;;;;;;;;;5137955;27;20035;-75
2022/10/31 11:48:54;;;;;;;15.50;8.65;;;;;;;;;;5122444;27;20047;-73
2022/10/31 11:51:40;;;;;;;14.65;8.50;;;;;;;;;;5137953;27;20023;-75
2022/10/31 11:54:28;;;;;;;14.85;8.50;;;;;;;;;;5124338;27;20027;-75
2022/10/31 11:57:26;;;;;;;14.98;8.85;;;;;;;;;;5138029;27;20014;-74
2022/10/31 12:00:26;;;;;;;16.20;9.88;;;;;;;;;;5124134;27;20019;-73
2022/10/31 12:03:30;;;;;;;17.08;9.75;;;;;;;;;;5139453;27;20419;-74
2022/10/31 12:06:19;;;;;;;14.27;9.05;;;;;;;;;;5139381;27;20049;-74
2022/10/31 12:09:18;;;;;;;11.02;7.63;;;;;;;;;;5139092;27;20047;-75
2022/10/31 12:12:22;;;;;;;14.65;9.65;;;;;;;;;;5139063;27;20022;-74
2022/10/31 12:15:15;;;;;;;23.45;15.05;;;;;;;;;;5137506;27;20019;-75
2022/10/31 12:18:13;;;;;;;17.35;9.43;;;;;;;;;;5138174;27;20433;-74
2022/10/31 12:20:58;;;;;;;15.05;9.30;;;;;;;;;;5137743;27;20452;-74
2022/10/31 12:24:04;;;;;;;17.45;8.88;;;;;;;;;;5138627;27;20023;-74
2022/10/31 12:26:54;;;;;;;16.98;8.82;;;;;;;;;;5137499;27;20015;-75
2022/10/31 12:29:43;;;;;;;13.40;8.98;;;;;;;;;;5137605;27;20358;-75
2022/10/31 12:32:47;;;;;;;40.28;28.48;;;;;;;;;;5137231;27;20027;-74
2022/10/31 12:35:35;;;;;;;15.85;8.85;;;;;;;;;;5136422;27;20033;-74
2022/10/31 12:38:38;;;;;;;17.63;9.43;;;;;;;;;;5136910;27;20106;-74
2022/10/31 12:41:24;;;;;;;14.10;8.10;;;;;;;;;;5137208;27;20467;-74
2022/10/31 12:44:33;;;;;;;12.35;7.43;;;;;;;;;;5121818;27;20015;-75
2022/10/31 12:47:30;;;;;;;12.90;7.50;;;;;;;;;;5110452;27;20104;-74
2022/10/31 12:50:16;;;;;;;14.30;7.70;;;;;;;;;;5137706;27;20041;-74
2022/10/31 12:53:13;;;;;;;15.30;7.57;;;;;;;;;;5121770;27;20019;-74
2022/10/31 12:56:05;;;;;;;12.45;7.15;;;;;;;;;;5139183;27;20026;-75
2022/10/31 12:59:02;;;;;;;16.35;8.35;;;;;;;;;;5121516;27;20109;-75
2022/10/31 13:01:55;;;;;;;10.98;7.30;;;;;;;;;;5120060;27;20019;-74
2022/10/31 13:04:47;;;;;;;14.10;8.73;;;;;;;;;;5137512;27;20031;-74
2022/10/31 13:07:55;;;;;;;13.30;7.97;;;;;;;;;;5136193;27;20012;-76
2022/10/31 13:10:44;;;;;;;13.35;7.45;;;;;;;;;;5121651;27;20079;-75
2022/10/31 13:13:35;;;;;;;13.32;7.18;;;;;;;;;;5137174;27;20068;-76
2022/10/31 13:16:23;;;;;;;11.55;7.38;;;;;;;;;;5123233;27;20023;-74
2022/10/31 13:19:09;;;;;;;10.27;7.05;;;;;;;;;;5136397;27;20100;-75
2022/10/31 13:22:09;;;;;;;10.73;7.07;;;;;;;;;;5136344;27;20106;-74
2022/10/31 13:25:13;;;;;;;9.82;6.78;;;;;;;;;;5136269;27;20023;-75
2022/10/31 13:28:00;;;;;;;13.10;7.10;;;;;;;;;;5120787;27;20390;-75
2022/10/31 13:30:47;;;;;;;11.75;7.13;;;;;;;;;;5136619;27;20459;-75
2022/10/31 13:33:37;;;;;;;14.23;7.07;;;;;;;;;;5136917;27;20022;-75
2022/10/31 13:36:41;;;;;;;10.40;7.15;;;;;;;;;;5135759;27;20034;-74
2022/10/31 13:39:35;;;;;;;15.23;8.00;;;;;;;;;;5136007;27;20452;-74
2022/10/31 13:42:30;;;;;;;9.45;7.65;;;;;;;;;;5136580;27;20442;-74
2022/10/31 13:45:23;;;;;;;14.93;7.60;;;;;;;;;;5135940;27;20094;-74
2022/10/31 13:48:14;;;;;;;14.70;10.10;;;;;;;;;;5136513;27;20106;-75
2022/10/31 13:51:02;;;;;;;12.68;8.20;;;;;;;;;;5134627;27;20012;-74
2022/10/31 13:53:50;;;;;;;12.07;7.53;;;;;;;;;;5135673;27;20114;-72
2022/10/31 13:56:36;;;;;;;15.07;7.25;;;;;;;;;;5121421;27;20023;-74
2022/10/31 13:59:23;;;;;;;12.43;7.88;;;;;;;;;;5136131;27;20467;-74
2022/10/31 14:02:14;;;;;;;16.08;7.93;;;;;;;;;;5121542;27;20019;-75
2022/10/31 14:05:02;;;;;;;10.85;6.90;;;;;;;;;;5137830;27;20011;-74
2022/10/31 14:07:47;;;;;;;18.13;8.77;;;;;;;;;;5136030;27;20027;-74
2022/10/31 14:10:37;;;;;;;15.00;7.53;;;;;;;;;;5135901;27;20027;-74
2022/10/31 14:13:26;;;;;;;10.68;7.30;;;;;;;;;;5136421;27;20019;-74
2022/10/31 14:16:21;;;;;;;13.48;7.78;;;;;;;;;;5135124;27;20027;-74
2022/10/31 14:19:08;;;;;;;15.80;7.97;;;;;;;;;;5120543;27;20098;-75
2022/10/31 14:21:54;;;;;;;11.88;8.23;;;;;;;;;;5136387;27;20088;-75
2022/10/31 14:24:39;;;;;;;18.80;8.23;;;;;;;;;;5121390;28;20075;-74
2022/10/31 14:27:28;;;;;;;13.40;7.95;;;;;;;;;;5135581;27;20019;-74
2022/10/31 14:30:18;;;;;;;12.30;7.55;;;;;;;;;;5135372;28;20111;-74
2022/10/31 14:33:13;;;;;;;15.15;9.15;;;;;;;;;;5135957;28;20091;-74
2022/10/31 14:35:59;;;;;;;17.98;9.85;;;;;;;;;;5135640;28;20054;-74
2022/10/31 14:38:55;;;;;;;16.95;9.68;;;;;;;;;;5120731;28;20035;-74
2022/10/31 14:41:47;;;;;;;17.52;9.43;;;;;;;;;;5135655;28;20055;-75
2022/10/31 14:44:33;;;;;;;17.65;10.07;;;;;;;;;;5135137;28;20023;-75
2022/10/31 14:47:37;;;;;;;18.45;10.43;;;;;;;;;;5134809;28;20111;-75
2022/10/31 14:50:25;;;;;;;18.08;9.20;;;;;;;;;;5134518;28;20329;-75
2022/10/31 14:53:25;;;;;;;21.33;10.43;;;;;;;;;;5120921;28;20023;-74
2022/10/31 14:56:11;;;;;;;23.08;10.40;;;;;;;;;;5134351;28;20027;-75
2022/10/31 14:59:02;;;;;;;27.65;12.80;;;;;;;;;;5134161;28;20106;-76
2022/10/31 15:01:58;;;;;;;25.00;12.48;;;;;;;;;;5137203;27;20107;-75
2022/10/31 15:04:46;;;;;;;25.83;12.82;;;;;;;;;;5138314;27;20023;-77
2022/10/31 15:07:34;;;;;;;27.77;13.00;;;;;;;;;;5137654;27;20030;-76
2022/10/31 15:10:22;;;;;;;26.33;11.98;;;;;;;;;;5138538;27;20108;-74
2022/10/31 15:13:09;;;;;;;24.42;11.60;;;;;;;;;;5123890;27;20027;-75
2022/10/31 15:15:55;;;;;;;28.85;12.75;;;;;;;;;;5137735;27;20031;-75
2022/10/31 15:18:47;;;;;;;43.58;14.68;;;;;;;;;;5137861;27;20027;-77
2022/10/31 15:21:33;;;;;;;31.23;14.18;;;;;;;;;;5138169;27;20038;-76
2022/10/31 15:24:19;;;;;;;32.42;14.52;;;;;;;;;;5137866;27;20092;-76
2022/10/31 15:27:05;;;;;;;39.85;15.70;;;;;;;;;;5137000;27;20030;-76
2022/10/31 15:29:54;;;;;;;40.58;18.67;;;;;;;;;;5138006;27;20168;-76
2022/10/31 15:32:43;;;;;;;40.30;19.48;;;;;;;;;;5122914;27;20444;-76
2022/10/31 15:35:30;;;;;;;41.95;20.88;;;;;;;;;;5123254;27;20023;-77
2022/10/31 15:38:15;;;;;;;52.58;20.88;;;;;;;;;;5137200;27;20023;-77
2022/10/31 15:41:03;;;;;;;46.75;19.60;;;;;;;;;;5138684;27;20023;-76
2022/10/31 15:43:49;;;;;;;52.05;19.60;;;;;;;;;;5122517;27;20090;-77
2022/10/31 15:46:34;;;;;;;40.13;19.98;;;;;;;;;;5136485;27;20364;-76
2022/10/31 15:49:32;;;;;;;43.40;19.75;;;;;;;;;;5142110;27;20333;-77
2022/10/31 15:52:26;;;;;;;44.00;18.88;;;;;;;;;;5126352;27;20026;-77
2022/10/31 15:55:22;;;;;;;45.08;18.25;;;;;;;;;;5139783;27;20013;-76
2022/10/31 15:58:12;;;;;;;45.45;19.05;;;;;;;;;;5138227;27;20019;-77
2022/10/31 16:01:03;;;;;;;40.75;18.95;;;;;;;;;;5137677;27;20023;-77
2022/10/31 16:03:58;;;;;;;38.53;19.02;;;;;;;;;;5137862;27;20115;-76
2022/10/31 16:06:43;;;;;;;50.47;18.90;;;;;;;;;;5136664;27;20361;-77
2022/10/31 16:09:29;;;;;;;47.13;20.15;;;;;;;;;;5123603;27;20011;-77
2022/10/31 16:12:15;;;;;;;53.75;20.65;;;;;;;;;;5137626;27;20445;-77
2022/10/31 16:15:01;;;;;;;43.08;19.98;;;;;;;;;;5122346;27;20026;-76
2022/10/31 16:17:48;;;;;;;56.80;22.92;;;;;;;;;;5122032;27;20460;-76
2022/10/31 16:20:34;;;;;;;56.67;23.95;;;;;;;;;;5137158;27;20027;-77
2022/10/31 16:23:20;;;;;;;47.78;23.45;;;;;;;;;;5136033;27;20421;-79
2022/10/31 16:26:07;;;;;;;59.50;24.70;;;;;;;;;;5122578;27;20023;-78
2022/10/31 16:28:54;;;;;;;50.55;22.50;;;;;;;;;;5145461;27;20027;-76
2022/10/31 16:31:39;;;;;;;54.85;22.80;;;;;;;;;;5123634;27;20026;-77
2022/10/31 16:34:25;;;;;;;56.85;23.73;;;;;;;;;;5136869;27;20027;-77